Time;durP1;ratioP1;P1;durP2;ratioP2;P2;SDS_P1;SDS_P2;PMS_P1;PMS_P2;Temp;Humidity;BMP_temperature;BMP_pressure;BME280_temperature;BME280_humidity;BME280_pressure;Samples;Min_cycle;Max_cycle;Signal;HPM_P1;HPM_P2
2023/05/20 00:00:35;;;;;;;4.78;3.90;;;;;;;11.59;69.05;99555.00;6189688;23;20074;-83
2023/05/20 00:03:01;;;;;;;5.65;3.85;;;;;;;11.47;70.03;99570.25;6216219;23;20405;-83
2023/05/20 00:05:27;;;;;;;6.35;3.65;;;;;;;11.50;69.02;99529.69;6216397;23;20114;-83
2023/05/20 00:07:52;;;;;;;7.25;3.75;;;;;;;11.44;69.94;99546.69;6217297;23;20344;-82
2023/05/20 00:10:18;;;;;;;4.13;3.65;;;;;;;11.36;70.21;99549.69;6191295;23;20011;-84
2023/05/20 00:12:43;;;;;;;6.75;4.10;;;;;;;11.67;68.53;99559.19;6244015;22;20025;-83
2023/05/20 00:15:10;;;;;;;6.00;3.88;;;;;;;11.36;70.09;99536.34;6242907;23;20064;-83
2023/05/20 00:17:36;;;;;;;7.05;4.07;;;;;;;11.43;68.12;99545.03;6191513;23;20463;-83
2023/05/20 00:20:04;;;;;;;6.90;4.70;;;;;;;11.18;70.91;99547.19;6192008;23;20038;-83
2023/05/20 00:22:29;;;;;;;6.05;4.85;;;;;;;11.37;68.92;99546.00;6216090;23;20012;-83
2023/05/20 00:24:54;;;;;;;3.92;3.53;;;;;;;11.50;69.54;99560.94;6216438;23;20469;-83
2023/05/20 00:27:20;;;;;;;5.05;3.50;;;;;;;11.41;69.65;99562.34;6215961;23;20019;-83
2023/05/20 00:29:45;;;;;;;6.50;3.65;;;;;;;11.51;68.96;99539.31;6165239;23;20506;-83
2023/05/20 00:32:10;;;;;;;6.75;4.05;;;;;;;11.60;67.89;99545.13;6215697;23;20083;-83
2023/05/20 00:34:36;;;;;;;9.82;4.03;;;;;;;11.48;70.01;99536.31;6242003;22;20309;-83
2023/05/20 00:37:01;;;;;;;4.60;3.85;;;;;;;11.93;67.58;99546.06;6187958;23;20533;-83
2023/05/20 00:39:28;;;;;;;4.53;3.60;;;;;;;11.71;69.55;99554.97;6239880;23;20004;-83
2023/05/20 00:41:53;;;;;;;7.53;4.30;;;;;;;11.59;69.53;99540.81;6212884;23;20383;-83
2023/05/20 00:44:22;;;;;;;4.72;3.88;;;;;;;12.04;67.59;99544.38;6238608;23;20019;-83
2023/05/20 00:46:48;;;;;;;6.53;3.67;;;;;;;12.03;67.04;99532.84;6240489;23;20012;-83
2023/05/20 00:49:14;;;;;;;5.40;4.05;;;;;;;12.07;67.87;99522.50;6187634;23;20015;-83
2023/05/20 00:51:40;;;;;;;5.20;4.00;;;;;;;11.74;69.80;99544.63;6214968;23;20099;-83
2023/05/20 00:54:05;;;;;;;5.25;3.90;;;;;;;12.43;62.71;99526.53;6212950;23;20522;-83
2023/05/20 00:56:31;;;;;;;4.88;3.70;;;;;;;11.75;69.58;99530.19;6190157;23;20071;-83
2023/05/20 00:58:57;;;;;;;4.10;3.72;;;;;;;11.53;70.00;99521.16;6211554;23;20011;-83
2023/05/20 01:01:22;;;;;;;4.93;3.63;;;;;;;11.28;70.29;99523.34;6185371;23;20066;-83
2023/05/20 01:03:47;;;;;;;7.57;4.45;;;;;;;11.23;69.97;99529.41;6240435;23;20008;-83
2023/05/20 01:06:13;;;;;;;6.53;4.32;;;;;;;11.26;70.61;99501.41;6242094;23;20018;-83
2023/05/20 01:08:39;;;;;;;6.00;3.90;;;;;;;11.51;68.34;99509.13;6190689;23;20008;-83
2023/05/20 01:11:20;;;;;;;7.10;4.30;;;;;;;11.23;71.61;99533.94;6214593;23;20054;-83
2023/05/20 01:13:54;;;;;;;6.22;4.18;;;;;;;11.27;71.12;99501.16;6215461;23;20383;-83
2023/05/20 01:16:23;;;;;;;4.80;4.30;;;;;;;11.22;71.21;99509.09;6243531;23;20000;-82
2023/05/20 01:18:54;;;;;;;4.53;3.70;;;;;;;11.52;68.19;99502.69;6218348;23;20439;-83
2023/05/20 01:21:20;;;;;;;6.20;4.45;;;;;;;11.49;70.39;99509.34;6244476;23;20026;-83
2023/05/20 01:23:46;;;;;;;4.57;3.60;;;;;;;11.85;68.12;99521.56;6191540;23;20019;-83
2023/05/20 01:26:16;;;;;;;7.65;4.45;;;;;;;11.47;68.86;99494.56;6193031;23;20011;-83
2023/05/20 01:28:44;;;;;;;4.07;3.67;;;;;;;11.39;71.04;99508.31;6170066;23;20008;-83
2023/05/20 01:31:15;;;;;;;4.40;3.85;;;;;;;11.60;69.36;99505.03;6168793;23;20191;-83
2023/05/20 01:33:42;;;;;;;4.97;3.55;;;;;;;11.54;69.38;99511.28;6192589;23;20462;-83
2023/05/20 01:36:08;;;;;;;8.38;4.55;;;;;;;11.18;71.01;99504.44;6244506;23;20011;-83
2023/05/20 01:38:36;;;;;;;5.03;3.83;;;;;;;10.88;72.00;99495.78;6168221;23;20348;-83
2023/05/20 01:41:04;;;;;;;6.45;3.03;;;;;;;11.40;68.85;99508.09;6217281;23;20008;-83
2023/05/20 01:43:30;;;;;;;4.20;3.80;;;;;;;11.15;72.21;99508.41;6217329;23;20011;-83
2023/05/20 01:45:55;;;;;;;8.07;4.38;;;;;;;11.18;71.12;99515.94;6213625;23;20008;-83
2023/05/20 01:48:20;;;;;;;7.88;4.22;;;;;;;10.97;72.61;99521.91;6164681;23;20012;-83
2023/05/20 01:50:46;;;;;;;6.43;3.83;;;;;;;11.06;70.53;99500.97;6242622;23;20348;-83
2023/05/20 01:53:12;;;;;;;6.32;4.22;;;;;;;10.86;73.28;99517.38;6214199;23;20071;-83
2023/05/20 01:55:37;;;;;;;7.53;4.30;;;;;;;10.94;73.02;99508.22;6190182;23;20008;-82
2023/05/20 01:58:03;;;;;;;6.90;4.85;;;;;;;10.83;73.73;99503.69;6213235;23;20027;-83
2023/05/20 02:00:32;;;;;;;6.40;4.72;;;;;;;10.86;73.42;99495.19;6191424;23;20071;-83
2023/05/20 02:02:58;;;;;;;7.82;4.30;;;;;;;10.98;72.82;99482.66;6215318;23;20008;-83
2023/05/20 02:05:23;;;;;;;6.32;4.18;;;;;;;11.16;71.56;99511.91;6243129;23;20012;-83
2023/05/20 02:07:48;;;;;;;11.93;4.70;;;;;;;11.05;73.46;99505.50;6192028;23;20022;-83
2023/05/20 02:10:14;;;;;;;7.03;4.88;;;;;;;10.97;73.14;99494.38;6216432;23;20015;-83
2023/05/20 02:12:39;;;;;;;10.02;5.47;;;;;;;11.04;73.70;99506.56;6192106;23;20007;-82
2023/05/20 02:15:05;;;;;;;6.53;5.10;;;;;;;11.04;73.30;99503.06;6216191;23;20494;-83
2023/05/20 02:17:30;;;;;;;5.25;4.40;;;;;;;11.07;72.80;99503.41;6217884;23;20007;-83
2023/05/20 02:19:56;;;;;;;5.40;4.47;;;;;;;10.94;73.73;99497.53;6193368;23;20008;-83
2023/05/20 02:22:21;;;;;;;6.38;4.47;;;;;;;10.83;73.95;99501.03;6217864;23;20004;-83
2023/05/20 02:24:47;;;;;;;8.85;5.35;;;;;;;10.61;74.16;99482.13;6217655;23;20169;-83
2023/05/20 02:27:12;;;;;;;8.60;5.80;;;;;;;10.79;74.05;99506.00;6218960;23;20019;-83
2023/05/20 02:29:37;;;;;;;6.30;5.70;;;;;;;10.81;74.27;99503.13;6217858;23;20027;-83
2023/05/20 02:32:03;;;;;;;4.10;3.72;;;;;;;11.25;69.68;99473.84;6244710;22;20353;-83
2023/05/20 02:34:30;;;;;;;4.78;4.13;;;;;;;11.33;70.60;99502.09;6192256;23;20030;-83
2023/05/20 02:36:55;;;;;;;6.95;5.57;;;;;;;11.02;72.23;99481.13;6168657;23;20020;-82
2023/05/20 02:39:21;;;;;;;6.75;4.97;;;;;;;10.78;72.70;99487.56;6216279;23;20008;-82
2023/05/20 02:41:46;;;;;;;7.75;5.72;;;;;;;11.25;72.09;99497.09;6216634;23;20008;-83
2023/05/20 02:44:12;;;;;;;8.27;5.88;;;;;;;10.63;75.01;99496.03;6217176;23;20019;-82
2023/05/20 02:46:37;;;;;;;9.35;6.95;;;;;;;10.70;75.12;99501.25;6191397;23;20042;-82
2023/05/20 02:49:02;;;;;;;10.68;6.82;;;;;;;10.81;74.86;99513.78;6216664;23;20109;-82
2023/05/20 02:51:30;;;;;;;6.28;5.05;;;;;;;11.12;73.20;99508.84;6217094;23;20058;-83
2023/05/20 02:53:56;;;;;;;9.20;5.82;;;;;;;11.16;73.71;99506.53;6215694;23;20062;-83
2023/05/20 02:56:21;;;;;;;9.30;6.03;;;;;;;10.85;74.33;99493.59;6242668;23;20008;-83
2023/05/20 02:58:47;;;;;;;4.70;4.28;;;;;;;11.70;69.02;99497.22;6163739;23;20023;-83
2023/05/20 03:01:12;;;;;;;8.82;7.53;;;;;;;11.19;70.88;99480.16;6213447;23;20016;-83
2023/05/20 03:03:39;;;;;;;10.05;6.10;;;;;;;10.79;74.36;99483.84;6212832;23;20451;-83
2023/05/20 03:06:05;;;;;;;8.70;5.78;;;;;;;10.83;74.72;99506.38;6215309;23;20019;-83
2023/05/20 03:08:32;;;;;;;8.63;7.03;;;;;;;10.40;75.93;99493.34;6216939;23;20011;-83
2023/05/20 03:10:58;;;;;;;7.00;5.07;;;;;;;10.82;73.63;99500.19;6216622;23;20004;-83
2023/05/20 03:13:24;;;;;;;8.13;6.25;;;;;;;10.74;75.59;99491.75;6166382;23;20008;-83
2023/05/20 03:15:50;;;;;;;7.82;6.25;;;;;;;10.77;75.17;99505.41;6217173;23;20008;-82
2023/05/20 03:18:15;;;;;;;9.85;6.40;;;;;;;10.70;74.71;99506.59;6217315;23;20450;-82
2023/05/20 03:20:41;;;;;;;8.23;6.15;;;;;;;10.60;75.70;99503.69;6191121;23;20062;-82
2023/05/20 03:23:06;;;;;;;9.18;6.07;;;;;;;10.56;75.47;99506.00;6191445;23;20004;-82
2023/05/20 03:25:32;;;;;;;9.65;7.22;;;;;;;10.38;76.58;99500.78;6216678;23;20107;-82
2023/05/20 03:27:58;;;;;;;9.00;6.40;;;;;;;10.62;75.97;99510.41;6192400;23;20060;-82
2023/05/20 03:30:24;;;;;;;8.15;5.88;;;;;;;10.80;74.29;99504.16;6242670;23;20003;-82
2023/05/20 03:32:50;;;;;;;9.48;6.38;;;;;;;10.45;76.56;99504.97;6244574;23;20412;-83
2023/05/20 03:35:15;;;;;;;5.57;5.03;;;;;;;10.75;73.12;99499.50;6242992;23;20010;-82
2023/05/20 03:37:41;;;;;;;9.32;6.85;;;;;;;10.68;74.87;99508.69;6216667;23;20032;-83
2023/05/20 03:40:09;;;;;;;8.13;6.57;;;;;;;10.33;76.77;99490.00;6216014;23;20331;-83
2023/05/20 03:42:35;;;;;;;11.77;7.20;;;;;;;10.32;76.90;99489.19;6243781;22;20004;-83
2023/05/20 03:45:00;;;;;;;7.10;5.82;;;;;;;10.62;75.65;99517.59;6239951;23;20011;-83
2023/05/20 03:47:26;;;;;;;7.78;6.10;;;;;;;10.28;77.07;99514.72;6240263;23;20012;-83
2023/05/20 03:49:52;;;;;;;7.85;5.65;;;;;;;10.50;76.13;99515.78;6213376;23;20091;-83
2023/05/20 03:52:17;;;;;;;8.95;5.28;;;;;;;10.91;73.62;99511.34;6214571;23;20034;-83
2023/05/20 03:54:43;;;;;;;11.55;6.82;;;;;;;10.77;74.98;99517.97;6215176;23;20004;-82
2023/05/20 03:57:09;;;;;;;7.13;5.32;;;;;;;10.35;74.37;99477.25;6210195;23;20016;-82
2023/05/20 03:59:35;;;;;;;6.85;5.65;;;;;;;10.15;76.85;99484.75;6234311;22;20004;-82
2023/05/20 04:02:01;;;;;;;8.23;5.90;;;;;;;10.43;75.84;99490.22;6185529;23;20012;-82
2023/05/20 04:04:26;;;;;;;7.47;5.15;;;;;;;10.60;74.99;99506.34;6214227;23;20074;-82
2023/05/20 04:06:53;;;;;;;9.77;6.32;;;;;;;10.14;77.37;99491.94;6213042;23;20008;-82
2023/05/20 04:09:19;;;;;;;13.73;6.55;;;;;;;10.41;76.64;99485.13;6186040;23;20015;-82
2023/05/20 04:11:44;;;;;;;7.63;5.60;;;;;;;10.28;77.86;99513.88;6212088;23;20008;-81
2023/05/20 04:14:10;;;;;;;10.90;6.65;;;;;;;10.48;76.88;99509.03;6162315;23;20000;-82
2023/05/20 04:16:36;;;;;;;8.52;6.70;;;;;;;10.49;76.76;99506.13;6240060;23;20019;-82
2023/05/20 04:19:02;;;;;;;7.38;6.03;;;;;;;10.32;77.90;99505.19;6240143;23;20332;-82
2023/05/20 04:21:28;;;;;;;9.05;6.90;;;;;;;10.49;77.87;99506.13;6213247;23;20035;-82
2023/05/20 04:23:53;;;;;;;13.52;8.43;;;;;;;10.74;77.17;99513.09;6239826;23;20003;-82
2023/05/20 04:26:19;;;;;;;12.35;7.95;;;;;;;10.39;77.98;99508.56;6239829;23;20035;-83
2023/05/20 04:28:47;;;;;;;14.88;8.27;;;;;;;10.31;78.23;99498.22;6214345;23;20360;-81
2023/05/20 04:31:13;;;;;;;11.60;8.23;;;;;;;10.55;77.89;99509.72;6213011;23;20326;-82
2023/05/20 04:33:38;;;;;;;11.25;7.47;;;;;;;10.58;76.88;99495.91;6213890;23;20016;-82
2023/05/20 04:36:06;;;;;;;12.95;7.85;;;;;;;10.48;78.32;99514.38;6213272;23;20009;-82
2023/05/20 04:38:32;;;;;;;12.40;9.25;;;;;;;10.51;79.11;99512.03;6213039;23;20043;-82
2023/05/20 04:41:01;;;;;;;10.40;7.53;;;;;;;10.94;75.94;99517.00;6211914;23;20731;-82
2023/05/20 04:43:28;;;;;;;12.90;8.23;;;;;;;11.32;72.69;99506.59;6211803;23;20020;-82
2023/05/20 04:45:54;;;;;;;10.45;8.35;;;;;;;10.75;77.40;99514.69;6239521;23;20011;-81
2023/05/20 04:48:21;;;;;;;12.23;8.05;;;;;;;10.73;77.29;99516.78;6214473;23;20122;-81
2023/05/20 04:50:51;;;;;;;9.75;8.63;;;;;;;10.55;78.08;99513.19;6240499;22;20004;-81
2023/05/20 04:53:17;;;;;;;13.95;8.93;;;;;;;10.54;77.20;99514.25;6241755;23;20009;-82
2023/05/20 04:55:43;;;;;;;11.63;7.78;;;;;;;10.38;78.48;99512.28;6241410;23;20010;-82
2023/05/20 04:58:14;;;;;;;11.18;8.18;;;;;;;10.29;78.68;99480.81;6240826;23;20000;-82
2023/05/20 05:00:43;;;;;;;10.00;7.93;;;;;;;10.54;79.01;99500.09;6191284;23;20018;-82
2023/05/20 05:03:09;;;;;;;14.88;8.20;;;;;;;10.33;79.73;99490.78;6191049;23;20343;-82
2023/05/20 05:05:38;;;;;;;15.68;8.57;;;;;;;10.45;79.34;99499.63;6244355;23;20008;-82
2023/05/20 05:08:07;;;;;;;11.50;8.23;;;;;;;10.46;79.44;99503.13;6217552;23;20099;-82
2023/05/20 05:10:34;;;;;;;9.73;7.22;;;;;;;10.72;78.09;99500.00;6213614;23;20095;-82
2023/05/20 05:13:02;;;;;;;12.77;8.23;;;;;;;10.63;78.52;99490.69;6211076;23;20046;-82
2023/05/20 05:15:28;;;;;;;14.57;10.25;;;;;;;10.67;79.06;99499.03;6214012;23;20396;-81
2023/05/20 05:17:54;;;;;;;16.20;10.25;;;;;;;10.75;78.53;99490.69;6242857;23;20012;-82
2023/05/20 05:20:20;;;;;;;10.85;9.25;;;;;;;10.52;79.24;99488.84;6215898;23;20015;-83
2023/05/20 05:22:45;;;;;;;14.48;10.07;;;;;;;10.76;78.94;99494.97;6191924;23;20008;-82
2023/05/20 05:25:11;;;;;;;13.70;9.00;;;;;;;10.85;78.70;99499.75;6217547;23;20081;-82
2023/05/20 05:27:37;;;;;;;15.88;9.05;;;;;;;10.91;78.49;99501.47;6215084;23;20039;-82
2023/05/20 05:30:04;;;;;;;11.50;7.75;;;;;;;11.00;76.06;99499.25;6216104;23;20463;-82
2023/05/20 05:32:29;;;;;;;11.65;9.45;;;;;;;10.80;78.43;99490.78;6242579;23;20345;-82
2023/05/20 05:34:55;;;;;;;10.10;7.78;;;;;;;10.98;75.80;99474.63;6239580;23;20079;-82
2023/05/20 05:37:20;;;;;;;15.05;10.68;;;;;;;10.91;79.37;99503.31;6243300;23;20420;-82
2023/05/20 05:39:46;;;;;;;13.65;8.68;;;;;;;11.08;77.84;99501.56;6217205;23;20008;-83
2023/05/20 05:42:12;;;;;;;8.18;5.93;;;;;;;11.38;73.26;99470.09;6215450;23;20388;-82
2023/05/20 05:44:37;;;;;;;8.32;7.40;;;;;;;11.31;75.24;99477.47;6190762;23;20026;-83
2023/05/20 05:47:03;;;;;;;16.58;10.10;;;;;;;10.91;78.57;99477.44;6191957;23;20008;-83
2023/05/20 05:49:28;;;;;;;12.25;9.23;;;;;;;11.03;78.53;99498.78;6191494;23;20015;-83
2023/05/20 05:51:54;;;;;;;16.20;8.73;;;;;;;11.21;76.68;99493.28;6215800;23;20039;-82
2023/05/20 05:54:19;;;;;;;15.65;10.38;;;;;;;11.09;78.30;99469.28;6215448;23;20008;-82
2023/05/20 05:56:45;;;;;;;14.18;10.20;;;;;;;11.47;77.39;99489.22;6189422;23;20012;-82
2023/05/20 05:59:10;;;;;;;14.38;9.32;;;;;;;11.43;77.55;99486.22;6189316;23;20012;-82
2023/05/20 06:01:36;;;;;;;16.63;10.95;;;;;;;11.35;77.90;99480.47;6187434;23;20121;-82
2023/05/20 06:04:01;;;;;;;17.38;11.40;;;;;;;11.72;77.21;99489.75;6189804;23;20018;-82
2023/05/20 06:06:27;;;;;;;16.33;12.40;;;;;;;11.47;77.13;99484.69;6213541;23;20004;-82
2023/05/20 06:08:52;;;;;;;19.73;13.23;;;;;;;11.59;77.51;99496.19;6189667;23;20020;-82
2023/05/20 06:11:18;;;;;;;15.13;12.10;;;;;;;11.64;77.78;99503.47;6215437;23;20459;-81
2023/05/20 06:13:43;;;;;;;19.30;13.50;;;;;;;11.43;77.88;99474.72;6241748;23;20043;-82
2023/05/20 06:16:08;;;;;;;20.92;14.23;;;;;;;11.37;77.60;99489.03;6239934;23;20012;-82
2023/05/20 06:18:34;;;;;;;17.25;12.80;;;;;;;11.64;77.79;99488.22;6187642;23;20429;-83
2023/05/20 06:20:59;;;;;;;18.48;13.48;;;;;;;11.73;77.12;99491.38;6189264;23;20008;-82
2023/05/20 06:23:25;;;;;;;19.70;12.98;;;;;;;11.71;77.05;99488.94;6186270;23;20008;-82
2023/05/20 06:25:51;;;;;;;17.17;13.10;;;;;;;11.73;76.52;99486.84;6186105;23;20348;-82
2023/05/20 06:28:16;;;;;;;13.80;12.30;;;;;;;11.81;76.29;99507.84;6215043;23;20421;-82
2023/05/20 06:30:42;;;;;;;19.23;12.23;;;;;;;11.73;76.53;99491.38;6239201;23;20007;-81
2023/05/20 06:33:07;;;;;;;16.13;13.30;;;;;;;11.81;76.53;99494.47;6189769;23;20008;-82
2023/05/20 06:35:36;;;;;;;13.63;11.90;;;;;;;11.82;76.70;99495.28;6215651;23;20016;-81
2023/05/20 06:38:01;;;;;;;17.90;13.50;;;;;;;11.63;76.63;99491.16;6217106;23;20003;-83
2023/05/20 06:40:27;;;;;;;18.15;12.80;;;;;;;11.89;76.12;99503.97;6189736;23;20012;-81
2023/05/20 06:42:53;;;;;;;17.50;12.02;;;;;;;11.83;76.19;99487.03;6243513;23;20058;-82
2023/05/20 06:45:18;;;;;;;21.08;13.23;;;;;;;11.78;77.04;99502.97;6242180;23;20004;-82
2023/05/20 06:47:44;;;;;;;15.00;11.45;;;;;;;12.06;75.96;99501.34;6216796;23;20035;-82
2023/05/20 06:50:10;;;;;;;15.88;11.75;;;;;;;11.67;76.58;99477.09;6214512;23;20082;-81
2023/05/20 06:52:36;;;;;;;14.02;10.82;;;;;;;11.85;76.29;99487.59;6214078;23;20004;-82
2023/05/20 06:55:02;;;;;;;16.52;11.75;;;;;;;11.80;76.56;99506.22;6215050;23;20051;-82
2023/05/20 06:57:28;;;;;;;16.30;11.77;;;;;;;11.64;77.26;99490.13;6215409;23;20344;-82
2023/05/20 06:59:53;;;;;;;16.38;11.65;;;;;;;11.65;77.21;99489.06;6215404;23;20011;-82
2023/05/20 07:02:20;;;;;;;14.70;12.55;;;;;;;11.91;76.72;99493.84;6215243;23;20008;-82
2023/05/20 07:04:46;;;;;;;16.80;10.75;;;;;;;11.84;77.37;99495.84;6211596;23;20015;-82
2023/05/20 07:07:11;;;;;;;18.42;11.90;;;;;;;11.71;77.00;99483.59;6214364;23;20012;-82
2023/05/20 07:09:36;;;;;;;13.45;11.75;;;;;;;11.72;77.64;99484.41;6214913;23;20016;-82
2023/05/20 07:12:02;;;;;;;19.77;12.85;;;;;;;11.72;76.54;99452.31;6163167;23;20057;-82
2023/05/20 07:14:27;;;;;;;13.07;10.40;;;;;;;11.95;76.36;99489.63;6212575;23;20000;-82
2023/05/20 07:16:53;;;;;;;14.48;10.30;;;;;;;12.17;76.52;99481.69;6240566;22;20420;-82
2023/05/20 07:19:18;;;;;;;14.70;11.80;;;;;;;11.83;77.27;99468.31;6214907;23;20004;-82
2023/05/20 07:21:43;;;;;;;14.13;10.40;;;;;;;12.11;75.84;99461.25;6189356;23;20031;-82
2023/05/20 07:24:09;;;;;;;17.02;11.23;;;;;;;11.54;77.83;99445.28;6214811;23;20468;-82
2023/05/20 07:26:35;;;;;;;17.85;12.15;;;;;;;11.77;78.49;99437.16;6190635;23;20008;-81
2023/05/20 07:29:02;;;;;;;17.60;11.02;;;;;;;12.11;78.29;99463.94;6213878;23;20070;-82
2023/05/20 07:31:28;;;;;;;17.73;11.82;;;;;;;11.86;77.40;99437.59;6241656;23;20000;-82
2023/05/20 07:33:53;;;;;;;13.75;10.63;;;;;;;11.93;77.40;99449.75;6187479;23;20027;-82
2023/05/20 07:36:18;;;;;;;17.65;11.82;;;;;;;12.03;77.49;99449.91;6165237;23;20066;-82
2023/05/20 07:38:44;;;;;;;15.38;9.77;;;;;;;12.21;76.65;99440.81;6189520;23;20008;-82
2023/05/20 07:41:10;;;;;;;17.08;11.30;;;;;;;12.38;76.09;99452.34;6189925;23;20016;-83
2023/05/20 07:43:35;;;;;;;16.60;11.38;;;;;;;12.46;75.68;99461.81;6241604;23;20833;-83
2023/05/20 07:46:01;;;;;;;19.70;11.95;;;;;;;12.34;76.31;99455.75;6215117;23;20054;-83
2023/05/20 07:48:26;;;;;;;13.68;11.00;;;;;;;12.25;76.42;99431.28;6240196;22;20014;-83
2023/05/20 07:50:52;;;;;;;16.70;11.35;;;;;;;12.61;75.75;99457.50;6188689;23;20015;-82
2023/05/20 07:53:17;;;;;;;13.85;10.55;;;;;;;12.72;74.89;99453.91;6188320;23;20039;-82
2023/05/20 07:55:43;;;;;;;19.30;10.75;;;;;;;12.48;75.04;99438.28;6211986;23;20011;-82
2023/05/20 07:58:08;;;;;;;12.02;10.73;;;;;;;12.65;75.34;99404.22;6187964;23;20012;-83
2023/05/20 08:00:34;;;;;;;13.82;9.60;;;;;;;12.56;75.16;99411.06;6214436;23;20104;-83
2023/05/20 08:02:59;;;;;;;14.88;11.40;;;;;;;12.36;75.26;99421.53;6187373;23;20004;-82
2023/05/20 08:05:25;;;;;;;15.75;11.20;;;;;;;12.63;75.94;99443.84;6187043;23;20004;-83
2023/05/20 08:07:50;;;;;;;11.40;9.57;;;;;;;12.91;75.24;99457.09;6215163;23;20004;-83
2023/05/20 08:10:16;;;;;;;11.65;8.85;;;;;;;12.99;74.36;99443.28;6214361;23;20018;-82
2023/05/20 08:12:41;;;;;;;16.38;11.25;;;;;;;12.86;75.01;99437.47;6165035;23;20020;-82
2023/05/20 08:15:07;;;;;;;10.10;8.70;;;;;;;12.81;74.57;99451.59;6186467;23;20011;-82
2023/05/20 08:17:33;;;;;;;12.10;10.43;;;;;;;12.65;74.56;99422.97;6212663;23;20008;-82
2023/05/20 08:20:00;;;;;;;14.75;11.00;;;;;;;12.55;75.13;99425.53;6214172;23;20012;-82
2023/05/20 08:22:25;;;;;;;12.93;10.25;;;;;;;12.42;75.14;99417.84;6211421;23;20065;-82
2023/05/20 08:24:51;;;;;;;15.52;10.80;;;;;;;12.57;75.48;99429.59;6239366;23;20012;-82
2023/05/20 08:27:16;;;;;;;13.27;11.10;;;;;;;12.35;75.67;99409.19;6211933;23;20007;-82
2023/05/20 08:29:43;;;;;;;16.38;10.50;;;;;;;12.62;75.24;99431.53;6162920;23;20008;-82
2023/05/20 08:32:09;;;;;;;14.30;10.77;;;;;;;12.92;75.25;99421.22;6215096;23;20094;-82
2023/05/20 08:34:35;;;;;;;47.55;12.60;;;;;;;13.32;73.43;99429.72;6241557;23;20390;-82
2023/05/20 08:37:01;;;;;;;13.27;10.52;;;;;;;12.98;73.27;99424.75;6190668;23;20027;-82
2023/05/20 08:39:27;;;;;;;13.00;9.82;;;;;;;12.99;72.93;99416.47;6242683;23;20428;-83
2023/05/20 08:41:52;;;;;;;12.40;9.32;;;;;;;12.88;72.72;99395.97;6214288;23;20061;-83
2023/05/20 08:44:18;;;;;;;15.40;11.55;;;;;;;13.23;72.14;99400.97;6213902;23;20083;-83
2023/05/20 08:46:45;;;;;;;16.75;10.77;;;;;;;13.39;71.73;99413.44;6240651;23;20081;-83
2023/05/20 08:49:10;;;;;;;17.58;9.95;;;;;;;13.06;72.92;99411.75;6212665;23;20436;-83
2023/05/20 08:51:37;;;;;;;13.60;10.73;;;;;;;13.40;72.82;99425.81;6191669;23;20011;-83
2023/05/20 08:54:02;;;;;;;11.50;9.50;;;;;;;13.19;72.22;99416.72;6243445;23;20412;-83
2023/05/20 08:56:28;;;;;;;11.55;9.75;;;;;;;13.17;72.79;99434.91;6215691;23;20015;-83
2023/05/20 08:58:54;;;;;;;14.13;10.60;;;;;;;12.97;73.23;99413.25;6192493;23;20012;-82
2023/05/20 09:01:24;;;;;;;14.02;11.07;;;;;;;13.07;73.40;99423.28;6216848;23;20090;-83
2023/05/20 09:03:49;;;;;;;16.13;8.77;;;;;;;13.50;71.89;99407.13;6244342;23;20005;-83
2023/05/20 09:06:19;;;;;;;13.77;9.50;;;;;;;13.31;72.72;99432.69;6245527;23;20034;-82
2023/05/20 09:08:45;;;;;;;12.70;8.85;;;;;;;13.23;72.60;99433.94;6245161;23;20014;-82
2023/05/20 09:11:11;;;;;;;15.73;9.38;;;;;;;13.27;72.83;99429.69;6245118;23;20004;-82
2023/05/20 09:13:37;;;;;;;14.93;11.65;;;;;;;13.28;72.58;99430.50;6215881;23;20012;-82
2023/05/20 09:16:02;;;;;;;15.85;10.45;;;;;;;13.02;73.56;99415.97;6193433;23;20335;-82
2023/05/20 09:18:28;;;;;;;14.40;11.02;;;;;;;13.11;73.29;99429.75;6217260;23;20676;-82
2023/05/20 09:20:54;;;;;;;14.30;9.57;;;;;;;13.20;72.77;99422.91;6193090;23;20087;-82
2023/05/20 09:23:24;;;;;;;13.63;9.77;;;;;;;13.17;73.55;99413.47;6243210;22;20091;-82
2023/05/20 09:25:50;;;;;;;12.52;10.07;;;;;;;13.01;73.08;99402.81;6192979;23;20054;-82
2023/05/20 09:28:18;;;;;;;14.50;9.85;;;;;;;13.21;73.00;99433.38;6217805;23;20018;-82
2023/05/20 09:30:43;;;;;;;12.52;10.20;;;;;;;13.17;72.67;99401.97;6216227;23;20008;-83
2023/05/20 09:33:11;;;;;;;13.50;10.38;;;;;;;13.31;72.37;99419.28;6192208;23;20066;-83
2023/05/20 09:35:37;;;;;;;13.93;10.57;;;;;;;13.76;71.22;99421.59;6239408;23;20019;-82
2023/05/20 09:38:04;;;;;;;13.75;10.50;;;;;;;13.68;71.33;99430.09;6218826;23;20008;-82
2023/05/20 09:40:30;;;;;;;13.63;10.80;;;;;;;13.88;71.59;99427.59;6219095;23;20015;-82
2023/05/20 09:43:00;;;;;;;12.00;9.73;;;;;;;13.86;71.11;99394.84;6219305;23;20416;-82
2023/05/20 09:45:25;;;;;;;15.95;9.95;;;;;;;14.21;70.40;99392.44;6193068;23;20008;-82
2023/05/20 09:47:52;;;;;;;12.13;9.80;;;;;;;14.37;69.79;99417.53;6168447;23;20333;-82
2023/05/20 09:50:22;;;;;;;14.50;9.70;;;;;;;14.25;69.07;99399.72;6220344;23;20436;-82
2023/05/20 09:52:49;;;;;;;13.73;9.30;;;;;;;14.51;68.18;99411.44;6244890;23;20485;-82
2023/05/20 09:55:16;;;;;;;12.13;9.57;;;;;;;14.54;68.78;99388.63;6242181;23;20424;-82
2023/05/20 09:57:42;;;;;;;11.40;9.75;;;;;;;14.54;68.48;99421.69;6243061;23;20011;-82
2023/05/20 10:00:09;;;;;;;12.00;8.65;;;;;;;14.84;68.98;99423.72;6247074;23;20085;-82
2023/05/20 10:02:34;;;;;;;12.70;10.23;;;;;;;14.83;68.37;99412.16;6195368;23;20095;-82
2023/05/20 10:05:07;;;;;;;10.65;8.65;;;;;;;15.18;68.38;99405.31;6193807;23;20032;-83
2023/05/20 10:08:22;;;;;;;14.75;9.95;;;;;;;15.30;67.29;99390.53;6219621;23;20013;-83
2023/05/20 10:11:13;;;;;;;13.75;9.55;;;;;;;15.38;67.24;99402.66;6204748;23;20321;-83
2023/05/20 10:14:08;;;;;;;12.45;8.70;;;;;;;15.47;66.35;99395.72;6219459;23;20008;-82
2023/05/20 10:16:42;;;;;;;13.10;8.57;;;;;;;15.36;67.56;99396.72;6203866;23;20012;-82
2023/05/20 10:19:17;;;;;;;15.70;10.75;;;;;;;15.55;67.41;99400.59;6218829;23;20058;-82
2023/05/20 10:21:42;;;;;;;12.38;9.75;;;;;;;15.13;67.85;99367.63;6247056;23;20011;-82
2023/05/20 10:24:09;;;;;;;12.65;10.27;;;;;;;15.21;68.03;99402.06;6194203;23;20435;-82
2023/05/20 10:26:39;;;;;;;13.50;10.68;;;;;;;15.10;68.29;99395.88;6247067;23;20076;-82
2023/05/20 10:29:15;;;;;;;12.02;9.73;;;;;;;15.30;67.73;99387.03;6246305;23;20304;-82
2023/05/20 10:31:47;;;;;;;;;;;;;;;15.00;67.90;99385.09;6195534;23;20012;-83
2023/05/20 10:34:20;;;;;;;13.63;9.50;;;;;;;14.94;67.63;99370.81;6192996;23;19915;-83
2023/05/20 10:36:57;;;;;;;11.88;9.35;;;;;;;15.12;67.83;99376.75;6221502;23;20078;-83
2023/05/20 10:39:27;;;;;;;9.82;8.45;;;;;;;15.07;67.58;99380.25;6245926;23;20008;-82
2023/05/20 10:41:52;;;;;;;12.48;9.23;;;;;;;14.96;67.28;99365.97;6245965;23;20011;-82
2023/05/20 10:44:18;;;;;;;10.48;9.35;;;;;;;14.98;67.07;99377.25;6192621;23;20020;-83
2023/05/20 10:46:43;;;;;;;12.65;8.95;;;;;;;15.10;67.79;99362.78;6247559;23;20008;-83
2023/05/20 10:49:19;;;;;;;14.05;9.30;;;;;;;15.31;66.40;99381.38;6219943;23;20008;-83
2023/05/20 10:51:45;;;;;;;15.05;9.82;;;;;;;15.34;66.66;99372.78;6247503;23;20004;-82
2023/05/20 10:54:12;;;;;;;12.52;10.25;;;;;;;15.29;67.89;99378.16;6219941;23;20015;-82
2023/05/20 10:56:40;;;;;;;12.23;9.68;;;;;;;14.94;67.36;99360.06;6247091;23;19994;-83
2023/05/20 10:59:05;;;;;;;19.90;8.90;;;;;;;15.00;67.39;99375.13;6194759;23;20004;-82
2023/05/20 11:01:31;;;;;;;12.90;9.57;;;;;;;14.64;68.26;99380.63;6247051;23;20067;-83
2023/05/20 11:04:08;;;;;;;10.65;8.80;;;;;;;14.40;68.12;99352.56;6215920;23;20019;-84
2023/05/20 11:06:34;;;;;;;13.07;9.38;;;;;;;14.44;68.82;99348.31;6217215;23;20004;-83
2023/05/20 11:09:07;;;;;;;14.07;9.48;;;;;;;14.73;68.73;99371.00;6243562;23;20063;-82
2023/05/20 11:11:32;;;;;;;13.15;8.82;;;;;;;14.52;68.73;99345.94;6218058;23;20004;-82
2023/05/20 11:13:59;;;;;;;14.38;10.80;;;;;;;14.28;69.48;99350.06;6216964;23;20004;-82
2023/05/20 11:16:25;;;;;;;16.02;10.10;;;;;;;14.28;69.97;99347.38;6219303;23;20455;-82
2023/05/20 11:18:51;;;;;;;16.10;9.32;;;;;;;14.35;69.75;99361.38;6217824;23;20420;-82
2023/05/20 11:21:18;;;;;;;13.60;10.00;;;;;;;14.29;70.05;99359.75;6168472;23;20000;-82
2023/05/20 11:23:43;;;;;;;11.85;10.32;;;;;;;14.24;70.51;99343.59;6218469;23;20008;-82